Latest Coastal Weather Observations for Albany Airport

IDW60701

Issued at 4:23 am WST Monday 23 January 2017 (issued every 10 minutes, with the page automatically refreshed every 10 minutes)

About coastal observations | Map of coastal stations | Coastal observations for WA | Marine services | Other Formats
Station Details ID: 009999 Name: ALBANY AIRPORT Lat: -34.94 Lon: 117.82 Height: 68.4 m
Data from the previous 72 hours. | See also: Recent months at Albany Airport
Date/Time
WST
Temp
°C
Wind Pressure Rain since
9am
mm
Weather Cloud Vis
km
Sea
Height
m
Swell
Dir  Spd
kts
Gust
kts
hPa Trend Height
m
Period
s
Dir
23/04:00am 13.3 WNW 12 16 1012.8 - 0.0 - Cloudy 10 - - - -
23/03:30am 13.3 WNW 13 18 1012.7 - 0.0 - Partly cloudy 10 - - - -
23/03:00am 13.3 WNW 10 12 1012.0 - 0.0 - Partly cloudy 10 - - - -
23/02:30am 13.8 WNW 10 13 1011.9 - 0.0 - Partly cloudy 10 - - - -
23/02:00am 13.4 WNW 9 11 1011.9 - 0.0 - Partly cloudy 10 - - - -
23/01:30am 13.8 WNW 7 9 1011.9 - 0.0 - Partly cloudy 10 - - - -
23/01:00am 14.7 WNW 10 16 1012.0 - 0.0 - Partly cloudy 10 - - - -
23/12:30am 13.4 WNW 6 6 1012.3 - 0.0 - Partly cloudy 10 - - - -
23/12:00am 13.3 WNW 6 8 1012.3 - 0.0 - - 10 - - - -
 
Date/Time
WST
Temp
°C
Wind Pressure Rain since
9am
mm
Weather Cloud Vis
km
Sea
Height
m
Swell
Dir  Spd
kts
Gust
kts
hPa Trend Height
m
Period
s
Dir
22/11:30pm 14.6 WNW 6 7 1012.4 - 0.0 - Partly cloudy 10 - - - -
22/11:00pm 15.6 WNW 8 10 1012.3 - 0.0 - Partly cloudy 10 - - - -
22/10:30pm 16.3 W 7 10 1012.2 - 0.0 - Partly cloudy 10 - - - -
22/10:00pm 16.2 WNW 6 8 1012.3 - 0.0 - Partly cloudy 10 - - - -
22/09:30pm 16.6 W 8 10 1012.3 - 0.0 - Cloudy 10 - - - -
22/09:00pm 16.7 WNW 5 7 1012.2 - 0.0 - Cloudy 10 - - - -
22/08:30pm 16.7 W 7 8 1012.2 - 0.0 - Partly cloudy 10 - - - -
22/08:00pm 16.6 W 7 9 1012.0 - 0.0 - Partly cloudy 10 - - - -
22/07:30pm 16.7 WSW 9 14 1011.8 - 0.0 - - 10 - - - -
22/07:00pm 17.5 WSW 13 19 1011.4 - 0.0 - Partly cloudy 10 - - - -
22/06:30pm 18.6 WSW 12 17 1010.9 - 0.0 - Partly cloudy 10 - - - -
22/06:00pm 18.6 WSW 15 21 1010.4 - 0.0 - Mostly clear 10 - - - -
22/05:30pm 19.0 SW 14 19 1010.1 - 0.0 - Partly cloudy 10 - - - -
22/05:00pm 19.8 SW 14 19 1009.8 - 0.0 - Partly cloudy 10 - - - -
22/04:30pm 20.7 WSW 13 20 1009.8 - 0.0 - Partly cloudy 10 - - - -
22/04:00pm 20.6 SW 15 23 1009.9 - 0.0 - Partly cloudy 10 - - - -
22/03:30pm 20.0 WSW 17 29 1010.1 - 0.0 - Partly cloudy 10 - - - -
22/03:24pm 20.3 SW 17 29 1010.0 - 0.0 - Partly cloudy 10 - - - -
22/03:00pm 20.3 WSW 16 23 1010.1 - 0.0 - Mostly cloudy 10 - - - -
22/02:40pm 20.9 WSW 15 26 1010.0 - 0.0 - Cloudy 10 - - - -
22/02:30pm 20.3 SW 17 25 1010.1 - 0.0 - Partly cloudy 10 - - - -
22/02:00pm 20.1 WSW 17 25 1010.0 - 0.0 - Cloudy 10 - - - -
22/01:30pm 21.3 SW 17 26 1009.9 - 0.0 - Partly cloudy 10 - - - -
22/01:00pm 20.9 WSW 16 24 1009.8 - 0.0 - Partly cloudy 10 - - - -
22/12:30pm 20.8 WSW 17 24 1009.7 - 0.0 - Partly cloudy 10 - - - -
22/12:00pm 19.8 SW 17 21 1009.8 - 0.0 - Cloudy 10 - - - -
22/11:30am 19.8 SW 16 23 1009.7 - 0.0 - Partly cloudy 10 - - - -
22/11:00am 20.9 WSW 14 24 1009.6 - 0.0 - Cloudy 10 - - - -
22/10:30am 21.2 WSW 11 16 1009.8 - 0.0 - Cloudy 10 - - - -
22/10:00am 19.7 WSW 13 19 1009.9 - 0.0 - Cloudy 10 - - - -
22/09:30am 19.5 SW 14 19 1009.8 - 0.0 - Cloudy 10 - - - -
22/09:00am 19.6 WSW 14 20 1009.7 - 0.0 - Mostly cloudy 10 - - - -
22/08:30am 17.7 W 10 14 1009.7 - 0.0 - Cloudy 10 - - - -
22/08:15am 17.1 W 9 12 1009.8 - 0.0 - Partly cloudy 10 - - - -
22/08:12am 16.9 W 9 12 1009.8 - 0.0 - Partly cloudy 10 - - - -
22/08:00am 16.5 W 9 12 1009.7 - 0.0 - Partly cloudy 4 - - - -
22/07:30am 16.6 W 8 11 1009.7 - 0.0 - Partly cloudy 3 - - - -
22/07:17am 16.5 W 9 13 1009.6 - 0.0 - Partly cloudy 6 - - - -
22/07:09am 16.7 W 8 10 1009.6 - 0.0 - Partly cloudy 10 - - - -
22/07:00am 16.1 W 8 10 1009.5 - 0.0 - Partly cloudy 7 - - - -
22/06:56am 16.0 W 8 11 1009.6 - 0.0 - Partly cloudy 6 - - - -
22/06:49am 16.0 WSW 8 11 1009.6 - 0.0 - Partly cloudy 10 - - - -
22/06:30am 15.4 W 8 10 1009.5 - 0.0 - Partly cloudy 10 - - - -
22/06:00am 13.5 W 5 7 1009.4 - 0.0 - Mostly clear 10 - - - -
22/05:30am 10.7 NW 4 5 1009.0 - 0.0 - - 8 - - - -
22/05:12am 11.8 WNW 5 5 1008.8 - 0.0 - - 10 - - - -
22/05:00am 11.0 NW 4 5 1008.8 - 0.0 - - 5 - - - -
22/04:40am 11.2 N 2 5 1008.6 - 0.0 - - 6 - - - -
22/04:30am 11.8 NW 2 6 1008.7 - 0.0 - - 10 - - - -
22/04:00am 13.0 WNW 6 7 1008.9 - 0.0 - - 10 - - - -
22/03:30am 13.0 WNW 6 8 1009.1 - 0.0 - - 10 - - - -
22/03:00am 12.7 WNW 4 5 1009.0 - 0.0 - - 10 - - - -
22/02:30am 13.5 W 4 5 1008.8 - 0.0 - - 10 - - - -
22/02:00am 13.6 W 3 4 1008.9 - 0.0 - Partly cloudy 10 - - - -
22/01:30am 14.6 W 4 4 1009.0 - 0.0 - Partly cloudy 10 - - - -
22/01:00am 14.4 WSW 1 4 1009.1 - 0.0 - Partly cloudy 10 - - - -
22/12:30am 14.3 CALM 0 0 1009.4 - 0.0 - - 10 - - - -
22/12:00am 14.8 WSW 3 4 1009.7 - 0.0 - Mostly clear 10 - - - -
 
Date/Time
WST
Temp
°C
Wind Pressure Rain since
9am
mm
Weather Cloud Vis
km
Sea
Height
m
Swell
Dir  Spd
kts
Gust
kts
hPa Trend Height
m
Period
s
Dir
21/11:30pm 15.2 WSW 4 5 1009.9 - 0.0 - - 10 - - - -
21/11:00pm 15.6 SSW 3 4 1009.9 - 0.0 - Partly cloudy 10 - - - -
21/10:30pm 16.7 SSW 2 3 1010.0 - 0.0 - Cloudy 10 - - - -
21/10:00pm 16.9 SSW 3 3 1010.3 - 0.0 - Cloudy 10 - - - -
21/09:30pm 16.6 SSW 3 4 1010.3 - 0.0 - Cloudy 10 - - - -
21/09:00pm 16.4 SSW 4 5 1010.2 - 0.0 - Mostly cloudy 10 - - - -
21/08:30pm 16.3 SSW 3 4 1010.0 - 0.0 - Partly cloudy 10 - - - -
21/08:00pm 17.1 SSW 4 5 1009.9 - 0.0 - Partly cloudy 10 - - - -
21/07:30pm 18.2 SSW 7 9 1009.7 - 0.0 - Cloudy 10 - - - -
21/07:00pm 19.5 S 6 8 1009.4 - 0.0 - Cloudy 10 - - - -
21/06:30pm 20.2 SE 7 9 1009.2 - 0.0 - Cloudy 10 - - - -
21/06:00pm 20.5 SSE 8 10 1008.9 - 0.0 - Mostly cloudy 10 - - - -
21/05:30pm 21.1 SE 8 13 1008.5 - 0.0 - Partly cloudy 10 - - - -
21/05:00pm 20.8 SSE 9 13 1008.4 - 0.0 - Partly cloudy 10 - - - -
21/04:30pm 21.6 SSE 9 13 1008.4 - 0.0 - Partly cloudy 10 - - - -
21/04:00pm 21.8 SSE 8 13 1008.5 - 0.0 - Partly cloudy 10 - - - -
21/03:30pm 23.1 S 9 13 1008.4 - 0.0 - - 10 - - - -
21/03:00pm 23.3 S 10 14 1008.5 - 0.0 - - 10 - - - -
21/02:30pm 22.8 S 10 13 1008.4 - 0.0 - - 10 - - - -
21/02:00pm 23.7 SSW 11 15 1008.4 - 0.0 - - 10 - - - -
21/01:30pm 24.3 S 9 12 1008.6 - 0.0 - - 10 - - - -
21/01:00pm 23.9 S 9 13 1008.7 - 0.0 - - 10 - - - -
21/12:30pm 23.5 S 8 13 1009.0 - 0.0 - - 10 - - - -
21/12:00pm 23.5 S 9 12 1009.3 - 0.0 - - 10 - - - -
21/11:30am 23.6 SSE 8 12 1009.5 - 0.0 - - 10 - - - -
21/11:00am 24.9 ENE 4 8 1009.7 - 0.0 - - 10 - - - -
21/10:30am 23.6 S 4 7 1009.9 - 0.0 - - 10 - - - -
21/10:00am 22.5 SE 5 9 1010.2 - 0.0 - - 10 - - - -
21/09:30am 21.3 SE 5 8 1010.4 - 0.0 - - 10 - - - -
21/09:00am 20.1 S 4 7 1010.6 - 0.2 - - 10 - - - -
21/08:30am 19.4 SSW 4 7 1011.0 - 0.2 - - 10 - - - -
21/08:00am 18.2 W 5 7 1011.3 - 0.2 - - 10 - - - -
21/07:30am 17.2 W 3 6 1011.3 - 0.2 - - 10 - - - -
21/07:00am 14.1 N 1 3 1011.4 - 0.2 - - 10 - - - -
21/06:30am 12.2 N 4 5 1011.2 - 0.2 - - 10 - - - -
21/06:00am 11.4 W 3 4 1010.9 - 0.2 - - 10 - - - -
21/05:30am 9.6 SW 4 5 1010.9 - 0.2 - - 10 - - - -
21/05:00am 9.8 SSW 4 5 1010.7 - 0.2 - - 10 - - - -
21/04:30am 10.3 W 4 5 1010.3 - 0.2 - - 10 - - - -
21/04:00am 10.1 SSW 4 5 1010.1 - 0.2 - - 10 - - - -
21/03:30am 10.1 SW 4 4 1010.1 - 0.2 - - 10 - - - -
21/03:00am 10.7 W 3 4 1010.1 - 0.2 - - 10 - - - -
21/02:30am 11.5 CALM 0 0 1010.2 - 0.2 - - 10 - - - -
21/02:00am 11.5 ENE 2 4 1010.4 - 0.2 - - 10 - - - -
21/01:30am 11.8 ENE 5 6 1010.5 - 0.2 - - 10 - - - -
21/01:00am 12.2 ENE 5 6 1010.8 - 0.2 - - 10 - - - -
21/12:30am 12.5 NE 5 6 1011.1 - 0.2 - - 10 - - - -
21/12:00am 12.3 NE 5 6 1011.4 - 0.2 - - 10 - - - -
 
Date/Time
WST
Temp
°C
Wind Pressure Rain since
9am
mm
Weather Cloud Vis
km
Sea
Height
m
Swell
Dir  Spd
kts
Gust
kts
hPa Trend Height
m
Period
s
Dir
20/11:30pm 12.4 NE 5 6 1011.7 - 0.2 - - 10 - - - -
20/11:00pm 13.0 NE 4 5 1012.0 - 0.2 - - 10 - - - -
20/10:30pm 13.4 NE 4 5 1012.1 - 0.2 - - 10 - - - -
20/10:00pm 14.0 NE 5 6 1012.2 - 0.2 - - 10 - - - -
20/09:30pm 15.0 ENE 4 5 1012.3 - 0.2 - Partly cloudy 10 - - - -
20/09:00pm 16.4 ENE 6 7 1012.2 - 0.2 - Mostly cloudy 10 - - - -
20/08:30pm 16.6 E 5 6 1012.3 - 0.2 - Cloudy 10 - - - -
20/08:00pm 16.9 ESE 3 5 1012.3 - 0.2 - Cloudy 10 - - - -
20/07:30pm 17.1 SSE 4 6 1012.2 - 0.2 - Partly cloudy 10 - - - -
20/07:00pm 18.2 S 6 8 1012.1 - 0.2 - Partly cloudy 10 - - - -
20/06:30pm 19.1 S 7 9 1011.8 - 0.2 - - 10 - - - -
20/06:00pm 20.0 SSW 8 10 1011.7 - 0.2 - - 10 - - - -
20/05:30pm 20.1 S 9 12 1011.6 - 0.2 - - 10 - - - -
20/05:00pm 21.1 S 7 10 1011.6 - 0.2 - - 10 - - - -
20/04:30pm 21.3 S 7 10 1011.4 - 0.2 - Partly cloudy 10 - - - -
20/04:00pm 21.6 S 9 13 1011.4 - 0.2 - - 10 - - - -
20/03:30pm 21.4 S 10 17 1011.7 - 0.2 - - 10 - - - -
20/03:00pm 21.9 S 10 13 1011.7 - 0.2 - - 10 - - - -
20/02:30pm 22.3 S 10 14 1012.0 - 0.2 - - 10 - - - -
20/02:00pm 22.8 S 11 15 1012.2 - 0.2 - - 10 - - - -
20/01:30pm 22.8 SSW 10 15 1012.2 - 0.2 - - 10 - - - -
20/01:00pm 22.9 S 7 12 1012.3 - 0.2 - - 10 - - - -
20/12:30pm 23.1 SSW 7 12 1012.4 - 0.2 - - 10 - - - -
20/12:00pm 22.8 SSW 8 16 1012.5 - 0.2 - Mostly clear 10 - - - -
20/11:30am 22.1 SW 7 12 1013.2 - 0.0 - Mostly clear 10 - - - -
20/11:00am 21.4 WSW 8 13 1013.4 - 0.0 - Mostly clear 10 - - - -
20/10:30am 21.7 SW 7 13 1013.5 - 0.0 - Mostly clear 10 - - - -
20/10:00am 20.9 SW 7 13 1013.6 - 0.0 - Mostly clear 10 - - - -
20/09:30am 19.9 S 4 6 1013.5 - 0.0 - Mostly clear 10 - - - -
20/09:00am 19.1 WSW 6 8 1013.5 - 0.2 - Mostly clear 10 - - - -
20/08:30am 18.7 N 4 8 1013.5 - 0.2 - Mostly clear 10 - - - -
20/08:00am 18.5 NW 5 7 1013.7 - 0.2 - Mostly clear 10 - - - -
20/07:30am 17.2 NNW 5 6 1013.6 - 0.2 - Mostly clear 10 - - - -
20/07:00am 16.1 NW 5 7 1013.7 - 0.2 - Mostly cloudy 10 - - - -
20/06:30am 15.3 NW 5 7 1013.7 - 0.2 - Cloudy 10 - - - -
20/06:00am 14.8 WNW 4 6 1013.5 - 0.2 - Cloudy 10 - - - -
20/05:30am 14.4 NW 5 6 1013.4 - 0.2 - Cloudy 10 - - - -
20/05:00am 14.4 NW 5 5 1013.3 - 0.2 - Cloudy 10 - - - -
20/04:30am 14.1 CALM 0 1 1013.1 - 0.2 - Cloudy 10 - - - -

Other Formats:

Comma delimited format used in spreadsheet applications
http://www.bom.gov.au/fwo/IDW60701/IDW60701.94802.axf

JavaScript Object Notation format (JSON) in row-major order
http://www.bom.gov.au/fwo/IDW60701/IDW60701.94802.json